sensor_id;sensor_type;location;lat;lon;timestamp;temperature;humidity
15690;DHT22;7945;48.816;11.506;2022-09-13T00:00:33;16.70;99.90
15690;DHT22;7945;48.816;11.506;2022-09-13T00:03:01;16.60;99.90
15690;DHT22;7945;48.816;11.506;2022-09-13T00:05:28;16.60;99.90
15690;DHT22;7945;48.816;11.506;2022-09-13T00:07:57;16.60;99.90
15690;DHT22;7945;48.816;11.506;2022-09-13T00:10:24;16.50;99.90
15690;DHT22;7945;48.816;11.506;2022-09-13T00:12:52;16.40;99.90
15690;DHT22;7945;48.816;11.506;2022-09-13T00:15:19;16.40;99.90
15690;DHT22;7945;48.816;11.506;2022-09-13T00:17:46;16.30;99.90
15690;DHT22;7945;48.816;11.506;2022-09-13T00:20:13;16.20;99.90
15690;DHT22;7945;48.816;11.506;2022-09-13T00:22:40;16.20;99.90
15690;DHT22;7945;48.816;11.506;2022-09-13T00:25:09;16.20;99.90
15690;DHT22;7945;48.816;11.506;2022-09-13T00:27:36;16.20;99.90
15690;DHT22;7945;48.816;11.506;2022-09-13T00:30:05;16.20;99.90
15690;DHT22;7945;48.816;11.506;2022-09-13T00:32:33;16.30;99.90
15690;DHT22;7945;48.816;11.506;2022-09-13T00:35:00;16.30;99.90
15690;DHT22;7945;48.816;11.506;2022-09-13T00:37:27;16.30;99.90
15690;DHT22;7945;48.816;11.506;2022-09-13T00:39:54;16.30;99.90
15690;DHT22;7945;48.816;11.506;2022-09-13T00:42:25;16.20;99.90
15690;DHT22;7945;48.816;11.506;2022-09-13T00:44:55;16.10;99.90
15690;DHT22;7945;48.816;11.506;2022-09-13T00:47:27;16.20;99.90
15690;DHT22;7945;48.816;11.506;2022-09-13T00:49:58;16.10;99.90
15690;DHT22;7945;48.816;11.506;2022-09-13T00:52:28;16.20;99.90
15690;DHT22;7945;48.816;11.506;2022-09-13T00:55:00;16.10;99.90
15690;DHT22;7945;48.816;11.506;2022-09-13T00:57:30;16.10;99.90
15690;DHT22;7945;48.816;11.506;2022-09-13T01:00:02;16.00;99.90
15690;DHT22;7945;48.816;11.506;2022-09-13T01:02:34;16.00;99.90
15690;DHT22;7945;48.816;11.506;2022-09-13T01:05:02;15.90;99.90
15690;DHT22;7945;48.816;11.506;2022-09-13T01:07:29;15.90;99.90
15690;DHT22;7945;48.816;11.506;2022-09-13T01:09:56;15.90;99.90
15690;DHT22;7945;48.816;11.506;2022-09-13T01:12:31;15.80;99.90
15690;DHT22;7945;48.816;11.506;2022-09-13T01:15:03;15.90;99.90
15690;DHT22;7945;48.816;11.506;2022-09-13T01:17:31;15.90;99.90
15690;DHT22;7945;48.816;11.506;2022-09-13T01:19:59;15.80;99.90
15690;DHT22;7945;48.816;11.506;2022-09-13T01:23:12;15.80;99.90
15690;DHT22;7945;48.816;11.506;2022-09-13T01:32:04;15.70;99.90
15690;DHT22;7945;48.816;11.506;2022-09-13T01:34:42;15.70;99.90
15690;DHT22;7945;48.816;11.506;2022-09-13T01:37:32;15.70;99.90
15690;DHT22;7945;48.816;11.506;2022-09-13T01:40:08;15.60;99.90
15690;DHT22;7945;48.816;11.506;2022-09-13T01:42:52;15.60;99.90
15690;DHT22;7945;48.816;11.506;2022-09-13T01:45:30;15.60;99.90
15690;DHT22;7945;48.816;11.506;2022-09-13T01:48:10;15.60;99.90
15690;DHT22;7945;48.816;11.506;2022-09-13T01:50:42;15.60;99.90
15690;DHT22;7945;48.816;11.506;2022-09-13T01:53:19;15.60;99.90
15690;DHT22;7945;48.816;11.506;2022-09-13T01:55:53;15.60;99.90
15690;DHT22;7945;48.816;11.506;2022-09-13T01:58:25;15.60;99.90
15690;DHT22;7945;48.816;11.506;2022-09-13T02:00:58;15.60;99.90
15690;DHT22;7945;48.816;11.506;2022-09-13T02:03:35;15.60;99.90
15690;DHT22;7945;48.816;11.506;2022-09-13T02:06:07;15.50;99.90
15690;DHT22;7945;48.816;11.506;2022-09-13T02:08:38;15.60;99.90
15690;DHT22;7945;48.816;11.506;2022-09-13T02:11:08;15.60;99.90
15690;DHT22;7945;48.816;11.506;2022-09-13T02:13:39;15.60;99.90
15690;DHT22;7945;48.816;11.506;2022-09-13T02:16:11;15.60;99.90
15690;DHT22;7945;48.816;11.506;2022-09-13T02:18:44;15.50;99.90
15690;DHT22;7945;48.816;11.506;2022-09-13T02:21:16;15.50;99.90
15690;DHT22;7945;48.816;11.506;2022-09-13T02:23:47;15.50;99.90
15690;DHT22;7945;48.816;11.506;2022-09-13T02:26:17;15.50;99.90
15690;DHT22;7945;48.816;11.506;2022-09-13T02:28:48;15.50;99.90
15690;DHT22;7945;48.816;11.506;2022-09-13T02:31:18;15.50;99.90
15690;DHT22;7945;48.816;11.506;2022-09-13T02:33:53;15.50;99.90
15690;DHT22;7945;48.816;11.506;2022-09-13T02:36:25;15.50;99.90
15690;DHT22;7945;48.816;11.506;2022-09-13T02:38:55;15.50;99.90
15690;DHT22;7945;48.816;11.506;2022-09-13T02:41:29;15.40;99.90
15690;DHT22;7945;48.816;11.506;2022-09-13T02:44:03;15.30;99.90
15690;DHT22;7945;48.816;11.506;2022-09-13T02:46:46;15.30;99.90
15690;DHT22;7945;48.816;11.506;2022-09-13T02:49:23;15.30;99.90
15690;DHT22;7945;48.816;11.506;2022-09-13T02:51:55;15.30;99.90
15690;DHT22;7945;48.816;11.506;2022-09-13T02:54:29;15.30;99.90
15690;DHT22;7945;48.816;11.506;2022-09-13T02:57:00;15.30;99.90
15690;DHT22;7945;48.816;11.506;2022-09-13T02:59:30;15.30;99.90
15690;DHT22;7945;48.816;11.506;2022-09-13T03:02:02;15.30;99.90
15690;DHT22;7945;48.816;11.506;2022-09-13T03:04:32;15.30;99.90
15690;DHT22;7945;48.816;11.506;2022-09-13T03:06:59;15.30;99.90
15690;DHT22;7945;48.816;11.506;2022-09-13T03:09:29;15.40;99.90
15690;DHT22;7945;48.816;11.506;2022-09-13T03:12:08;15.50;99.90
15690;DHT22;7945;48.816;11.506;2022-09-13T03:14:44;15.50;99.90
15690;DHT22;7945;48.816;11.506;2022-09-13T03:17:26;15.40;99.90
15690;DHT22;7945;48.816;11.506;2022-09-13T03:20:08;15.30;99.90
15690;DHT22;7945;48.816;11.506;2022-09-13T03:25:55;15.00;99.90
15690;DHT22;7945;48.816;11.506;2022-09-13T03:28:33;14.90;99.90
15690;DHT22;7945;48.816;11.506;2022-09-13T03:31:06;14.80;99.90
15690;DHT22;7945;48.816;11.506;2022-09-13T03:33:41;14.80;99.90
15690;DHT22;7945;48.816;11.506;2022-09-13T03:36:15;14.70;99.90
15690;DHT22;7945;48.816;11.506;2022-09-13T03:39:08;14.70;99.90
15690;DHT22;7945;48.816;11.506;2022-09-13T03:41:41;14.60;99.90
15690;DHT22;7945;48.816;11.506;2022-09-13T03:44:12;14.60;99.90
15690;DHT22;7945;48.816;11.506;2022-09-13T03:46:42;14.70;99.90
15690;DHT22;7945;48.816;11.506;2022-09-13T03:49:11;14.70;99.90
15690;DHT22;7945;48.816;11.506;2022-09-13T03:51:42;14.70;99.90
15690;DHT22;7945;48.816;11.506;2022-09-13T03:54:14;14.70;99.90
15690;DHT22;7945;48.816;11.506;2022-09-13T03:56:41;14.70;99.90
15690;DHT22;7945;48.816;11.506;2022-09-13T03:59:09;14.70;99.90
15690;DHT22;7945;48.816;11.506;2022-09-13T04:01:35;14.70;99.90
15690;DHT22;7945;48.816;11.506;2022-09-13T04:04:02;14.70;99.90
15690;DHT22;7945;48.816;11.506;2022-09-13T04:06:29;14.70;99.90
15690;DHT22;7945;48.816;11.506;2022-09-13T04:08:57;14.80;99.90
15690;DHT22;7945;48.816;11.506;2022-09-13T04:11:24;14.80;99.90
15690;DHT22;7945;48.816;11.506;2022-09-13T04:13:51;14.80;99.90
15690;DHT22;7945;48.816;11.506;2022-09-13T04:16:18;14.80;99.90
15690;DHT22;7945;48.816;11.506;2022-09-13T04:18:45;14.70;99.90
15690;DHT22;7945;48.816;11.506;2022-09-13T04:21:12;14.70;99.90
15690;DHT22;7945;48.816;11.506;2022-09-13T04:23:38;14.80;99.90
15690;DHT22;7945;48.816;11.506;2022-09-13T04:26:07;14.70;99.90
15690;DHT22;7945;48.816;11.506;2022-09-13T04:28:33;14.70;99.90
15690;DHT22;7945;48.816;11.506;2022-09-13T04:31:00;14.70;99.90
15690;DHT22;7945;48.816;11.506;2022-09-13T04:33:27;14.70;99.90
15690;DHT22;7945;48.816;11.506;2022-09-13T04:35:57;14.70;99.90
15690;DHT22;7945;48.816;11.506;2022-09-13T04:38:24;14.80;99.90
15690;DHT22;7945;48.816;11.506;2022-09-13T04:40:54;14.70;99.90
15690;DHT22;7945;48.816;11.506;2022-09-13T04:43:23;14.80;99.90
15690;DHT22;7945;48.816;11.506;2022-09-13T04:45:50;14.70;99.90
15690;DHT22;7945;48.816;11.506;2022-09-13T04:48:17;14.70;99.90
15690;DHT22;7945;48.816;11.506;2022-09-13T04:50:44;14.70;99.90
15690;DHT22;7945;48.816;11.506;2022-09-13T04:53:10;14.70;99.90
15690;DHT22;7945;48.816;11.506;2022-09-13T04:55:37;14.70;99.90
15690;DHT22;7945;48.816;11.506;2022-09-13T04:58:04;14.70;99.90
15690;DHT22;7945;48.816;11.506;2022-09-13T05:00:32;14.70;99.90
15690;DHT22;7945;48.816;11.506;2022-09-13T05:03:00;14.70;99.90
15690;DHT22;7945;48.816;11.506;2022-09-13T05:05:27;14.70;99.90
15690;DHT22;7945;48.816;11.506;2022-09-13T05:07:55;14.70;99.90
15690;DHT22;7945;48.816;11.506;2022-09-13T05:10:22;14.70;99.90
15690;DHT22;7945;48.816;11.506;2022-09-13T05:12:49;15.00;99.90
15690;DHT22;7945;48.816;11.506;2022-09-13T05:15:16;15.20;99.90
15690;DHT22;7945;48.816;11.506;2022-09-13T05:17:44;15.80;99.90
15690;DHT22;7945;48.816;11.506;2022-09-13T05:20:11;16.70;99.90
15690;DHT22;7945;48.816;11.506;2022-09-13T05:22:37;17.60;99.50
15690;DHT22;7945;48.816;11.506;2022-09-13T05:25:05;18.40;98.20
15690;DHT22;7945;48.816;11.506;2022-09-13T05:27:32;18.90;97.30
15690;DHT22;7945;48.816;11.506;2022-09-13T05:29:59;19.10;96.70
15690;DHT22;7945;48.816;11.506;2022-09-13T05:32:26;19.30;96.40
15690;DHT22;7945;48.816;11.506;2022-09-13T05:34:54;19.20;96.20
15690;DHT22;7945;48.816;11.506;2022-09-13T05:37:21;19.10;96.50
15690;DHT22;7945;48.816;11.506;2022-09-13T05:39:48;18.90;96.70
15690;DHT22;7945;48.816;11.506;2022-09-13T05:42:15;18.70;97.00
15690;DHT22;7945;48.816;11.506;2022-09-13T05:44:41;18.50;97.50
15690;DHT22;7945;48.816;11.506;2022-09-13T05:47:08;18.20;97.90
15690;DHT22;7945;48.816;11.506;2022-09-13T05:49:35;17.90;98.30
15690;DHT22;7945;48.816;11.506;2022-09-13T05:52:03;17.80;98.60
15690;DHT22;7945;48.816;11.506;2022-09-13T05:54:30;17.60;98.90
15690;DHT22;7945;48.816;11.506;2022-09-13T05:56:58;17.50;99.10
15690;DHT22;7945;48.816;11.506;2022-09-13T05:59:25;17.40;99.40
15690;DHT22;7945;48.816;11.506;2022-09-13T06:01:52;17.30;99.60
15690;DHT22;7945;48.816;11.506;2022-09-13T06:04:19;17.30;99.80
15690;DHT22;7945;48.816;11.506;2022-09-13T06:06:45;17.20;99.90
15690;DHT22;7945;48.816;11.506;2022-09-13T06:09:14;17.10;99.90
15690;DHT22;7945;48.816;11.506;2022-09-13T06:14:47;17.00;99.90
15690;DHT22;7945;48.816;11.506;2022-09-13T06:17:14;17.00;99.90
15690;DHT22;7945;48.816;11.506;2022-09-13T06:19:41;17.00;99.90
15690;DHT22;7945;48.816;11.506;2022-09-13T06:22:09;17.00;99.90
15690;DHT22;7945;48.816;11.506;2022-09-13T06:24:36;17.10;99.90
15690;DHT22;7945;48.816;11.506;2022-09-13T06:27:03;17.10;99.90
15690;DHT22;7945;48.816;11.506;2022-09-13T06:29:30;17.10;99.90
15690;DHT22;7945;48.816;11.506;2022-09-13T06:31:58;17.10;99.90
15690;DHT22;7945;48.816;11.506;2022-09-13T06:34:25;17.10;99.90
15690;DHT22;7945;48.816;11.506;2022-09-13T06:36:52;17.20;99.90
15690;DHT22;7945;48.816;11.506;2022-09-13T06:39:19;17.30;99.90
15690;DHT22;7945;48.816;11.506;2022-09-13T06:41:46;17.30;99.90
15690;DHT22;7945;48.816;11.506;2022-09-13T06:44:13;17.40;99.90
15690;DHT22;7945;48.816;11.506;2022-09-13T06:46:40;17.50;99.90
15690;DHT22;7945;48.816;11.506;2022-09-13T06:49:09;17.60;99.90
15690;DHT22;7945;48.816;11.506;2022-09-13T06:51:36;17.60;99.90
15690;DHT22;7945;48.816;11.506;2022-09-13T06:54:03;17.60;99.90
15690;DHT22;7945;48.816;11.506;2022-09-13T06:56:31;17.70;99.90
15690;DHT22;7945;48.816;11.506;2022-09-13T06:59:00;17.70;99.90
15690;DHT22;7945;48.816;11.506;2022-09-13T07:01:28;17.70;99.90
15690;DHT22;7945;48.816;11.506;2022-09-13T07:03:58;17.80;99.90
15690;DHT22;7945;48.816;11.506;2022-09-13T07:06:28;17.80;99.90
15690;DHT22;7945;48.816;11.506;2022-09-13T07:08:56;17.90;99.90
15690;DHT22;7945;48.816;11.506;2022-09-13T07:11:25;18.00;99.90
15690;DHT22;7945;48.816;11.506;2022-09-13T07:13:54;18.00;99.90
15690;DHT22;7945;48.816;11.506;2022-09-13T07:16:23;18.10;99.90
15690;DHT22;7945;48.816;11.506;2022-09-13T07:18:50;18.10;99.90
15690;DHT22;7945;48.816;11.506;2022-09-13T07:21:18;18.10;99.90
15690;DHT22;7945;48.816;11.506;2022-09-13T07:23:46;18.10;99.90
15690;DHT22;7945;48.816;11.506;2022-09-13T07:26:13;18.10;99.90
15690;DHT22;7945;48.816;11.506;2022-09-13T07:28:42;18.20;99.90
15690;DHT22;7945;48.816;11.506;2022-09-13T07:31:11;18.20;99.90
15690;DHT22;7945;48.816;11.506;2022-09-13T07:33:39;18.10;99.90
15690;DHT22;7945;48.816;11.506;2022-09-13T07:36:07;18.10;99.90
15690;DHT22;7945;48.816;11.506;2022-09-13T07:38:35;18.10;99.90
15690;DHT22;7945;48.816;11.506;2022-09-13T07:41:04;18.20;99.90
15690;DHT22;7945;48.816;11.506;2022-09-13T07:43:34;18.10;99.90
15690;DHT22;7945;48.816;11.506;2022-09-13T07:46:03;18.10;99.90
15690;DHT22;7945;48.816;11.506;2022-09-13T07:48:32;18.10;99.90
15690;DHT22;7945;48.816;11.506;2022-09-13T07:51:00;18.20;99.90
15690;DHT22;7945;48.816;11.506;2022-09-13T07:53:28;18.10;99.90
15690;DHT22;7945;48.816;11.506;2022-09-13T07:55:59;18.10;99.90
15690;DHT22;7945;48.816;11.506;2022-09-13T07:58:28;18.20;99.90
15690;DHT22;7945;48.816;11.506;2022-09-13T08:01:02;18.20;99.90
15690;DHT22;7945;48.816;11.506;2022-09-13T08:03:29;18.40;99.90
15690;DHT22;7945;48.816;11.506;2022-09-13T08:05:56;18.40;99.90
15690;DHT22;7945;48.816;11.506;2022-09-13T08:08:23;18.40;99.90
15690;DHT22;7945;48.816;11.506;2022-09-13T08:10:50;18.40;99.90
15690;DHT22;7945;48.816;11.506;2022-09-13T08:13:17;18.40;99.90
15690;DHT22;7945;48.816;11.506;2022-09-13T08:15:45;18.30;99.90
15690;DHT22;7945;48.816;11.506;2022-09-13T08:18:13;18.40;99.90
15690;DHT22;7945;48.816;11.506;2022-09-13T08:20:39;18.40;99.90
15690;DHT22;7945;48.816;11.506;2022-09-13T08:23:08;18.50;99.90
15690;DHT22;7945;48.816;11.506;2022-09-13T08:25:35;18.60;99.90
15690;DHT22;7945;48.816;11.506;2022-09-13T08:28:04;18.70;99.90
15690;DHT22;7945;48.816;11.506;2022-09-13T08:30:32;18.70;99.90
15690;DHT22;7945;48.816;11.506;2022-09-13T08:33:03;18.80;99.90
15690;DHT22;7945;48.816;11.506;2022-09-13T08:35:31;18.80;99.90
15690;DHT22;7945;48.816;11.506;2022-09-13T08:37:58;18.80;99.90
15690;DHT22;7945;48.816;11.506;2022-09-13T08:40:29;18.90;99.90
15690;DHT22;7945;48.816;11.506;2022-09-13T08:43:01;19.00;99.90
15690;DHT22;7945;48.816;11.506;2022-09-13T08:45:31;19.00;99.90
15690;DHT22;7945;48.816;11.506;2022-09-13T08:48:03;19.00;99.90
15690;DHT22;7945;48.816;11.506;2022-09-13T08:50:33;19.00;99.90
15690;DHT22;7945;48.816;11.506;2022-09-13T08:53:14;19.10;99.90
15690;DHT22;7945;48.816;11.506;2022-09-13T08:55:48;19.20;99.90
15690;DHT22;7945;48.816;11.506;2022-09-13T08:58:28;19.30;99.90
15690;DHT22;7945;48.816;11.506;2022-09-13T09:01:01;19.40;99.90
15690;DHT22;7945;48.816;11.506;2022-09-13T09:03:40;19.40;99.90
15690;DHT22;7945;48.816;11.506;2022-09-13T09:06:12;19.50;99.80
15690;DHT22;7945;48.816;11.506;2022-09-13T09:08:42;19.60;99.50
15690;DHT22;7945;48.816;11.506;2022-09-13T09:11:19;19.60;99.40
15690;DHT22;7945;48.816;11.506;2022-09-13T09:13:50;19.70;99.30
15690;DHT22;7945;48.816;11.506;2022-09-13T09:16:27;19.80;99.30
15690;DHT22;7945;48.816;11.506;2022-09-13T09:19:03;19.90;99.40
15690;DHT22;7945;48.816;11.506;2022-09-13T09:21:32;20.00;99.30
15690;DHT22;7945;48.816;11.506;2022-09-13T09:24:01;20.20;99.00
15690;DHT22;7945;48.816;11.506;2022-09-13T09:26:30;20.30;98.90
15690;DHT22;7945;48.816;11.506;2022-09-13T09:28:59;20.50;98.80
15690;DHT22;7945;48.816;11.506;2022-09-13T09:31:31;20.60;98.10
15690;DHT22;7945;48.816;11.506;2022-09-13T09:34:10;20.80;97.90
15690;DHT22;7945;48.816;11.506;2022-09-13T09:36:40;21.00;97.80
15690;DHT22;7945;48.816;11.506;2022-09-13T09:39:12;21.30;97.40
15690;DHT22;7945;48.816;11.506;2022-09-13T09:41:41;21.40;97.10
15690;DHT22;7945;48.816;11.506;2022-09-13T09:44:16;21.50;97.20
15690;DHT22;7945;48.816;11.506;2022-09-13T09:46:47;21.70;96.70
15690;DHT22;7945;48.816;11.506;2022-09-13T09:49:20;21.80;96.70
15690;DHT22;7945;48.816;11.506;2022-09-13T09:52:09;22.00;96.60
15690;DHT22;7945;48.816;11.506;2022-09-13T09:54:39;22.10;96.20
15690;DHT22;7945;48.816;11.506;2022-09-13T09:57:06;22.30;96.10
15690;DHT22;7945;48.816;11.506;2022-09-13T09:59:34;22.40;96.00
15690;DHT22;7945;48.816;11.506;2022-09-13T10:02:13;22.40;95.90
15690;DHT22;7945;48.816;11.506;2022-09-13T10:04:43;22.50;96.00
15690;DHT22;7945;48.816;11.506;2022-09-13T10:07:25;22.50;95.80
15690;DHT22;7945;48.816;11.506;2022-09-13T10:09:57;22.70;95.70
15690;DHT22;7945;48.816;11.506;2022-09-13T10:12:31;22.80;95.40
15690;DHT22;7945;48.816;11.506;2022-09-13T10:18:09;23.00;95.40
15690;DHT22;7945;48.816;11.506;2022-09-13T10:20:40;22.90;95.30
15690;DHT22;7945;48.816;11.506;2022-09-13T10:23:18;22.90;95.60
15690;DHT22;7945;48.816;11.506;2022-09-13T10:28:42;22.70;95.80
15690;DHT22;7945;48.816;11.506;2022-09-13T10:31:12;22.60;95.80
15690;DHT22;7945;48.816;11.506;2022-09-13T10:33:40;22.50;96.00
15690;DHT22;7945;48.816;11.506;2022-09-13T10:36:13;22.40;96.20
15690;DHT22;7945;48.816;11.506;2022-09-13T10:38:45;22.40;96.40
15690;DHT22;7945;48.816;11.506;2022-09-13T10:41:21;22.30;96.30
15690;DHT22;7945;48.816;11.506;2022-09-13T10:43:55;22.30;96.40
15690;DHT22;7945;48.816;11.506;2022-09-13T10:46:23;22.20;96.10
15690;DHT22;7945;48.816;11.506;2022-09-13T10:48:50;22.20;96.10
15690;DHT22;7945;48.816;11.506;2022-09-13T10:51:31;22.10;96.20
15690;DHT22;7945;48.816;11.506;2022-09-13T10:54:09;22.10;96.10
15690;DHT22;7945;48.816;11.506;2022-09-13T10:56:41;22.00;96.30
15690;DHT22;7945;48.816;11.506;2022-09-13T10:59:18;22.00;96.50
15690;DHT22;7945;48.816;11.506;2022-09-13T11:02:10;22.00;96.50
15690;DHT22;7945;48.816;11.506;2022-09-13T11:05:00;22.10;96.70
15690;DHT22;7945;48.816;11.506;2022-09-13T11:08:08;22.10;96.30
15690;DHT22;7945;48.816;11.506;2022-09-13T11:10:42;22.20;96.30
15690;DHT22;7945;48.816;11.506;2022-09-13T11:13:18;22.30;96.60
15690;DHT22;7945;48.816;11.506;2022-09-13T11:15:54;22.30;96.60
15690;DHT22;7945;48.816;11.506;2022-09-13T11:18:41;22.30;96.20
15690;DHT22;7945;48.816;11.506;2022-09-13T11:21:22;22.30;96.20
15690;DHT22;7945;48.816;11.506;2022-09-13T11:24:18;22.30;96.60
15690;DHT22;7945;48.816;11.506;2022-09-13T11:26:56;22.30;96.20
15690;DHT22;7945;48.816;11.506;2022-09-13T11:29:43;22.30;96.00
15690;DHT22;7945;48.816;11.506;2022-09-13T11:32:24;22.30;96.20
15690;DHT22;7945;48.816;11.506;2022-09-13T11:35:11;22.30;96.20
15690;DHT22;7945;48.816;11.506;2022-09-13T11:37:48;22.30;96.20
15690;DHT22;7945;48.816;11.506;2022-09-13T11:40:30;22.30;96.20
15690;DHT22;7945;48.816;11.506;2022-09-13T11:43:09;22.30;96.50
15690;DHT22;7945;48.816;11.506;2022-09-13T11:45:45;22.30;96.70
15690;DHT22;7945;48.816;11.506;2022-09-13T11:48:34;22.50;96.60
15690;DHT22;7945;48.816;11.506;2022-09-13T11:51:11;22.50;96.70
15690;DHT22;7945;48.816;11.506;2022-09-13T11:56:32;22.50;96.60
15690;DHT22;7945;48.816;11.506;2022-09-13T11:59:09;22.50;96.40
15690;DHT22;7945;48.816;11.506;2022-09-13T12:01:43;22.50;96.30
15690;DHT22;7945;48.816;11.506;2022-09-13T12:04:16;22.50;96.50
15690;DHT22;7945;48.816;11.506;2022-09-13T12:06:49;22.60;96.40
15690;DHT22;7945;48.816;11.506;2022-09-13T12:09:22;22.60;96.70
15690;DHT22;7945;48.816;11.506;2022-09-13T12:11:56;22.60;96.50
15690;DHT22;7945;48.816;11.506;2022-09-13T12:14:26;22.60;96.60
15690;DHT22;7945;48.816;11.506;2022-09-13T12:16:58;22.70;96.70
15690;DHT22;7945;48.816;11.506;2022-09-13T12:19:34;22.70;96.70
15690;DHT22;7945;48.816;11.506;2022-09-13T12:22:06;22.80;96.50
15690;DHT22;7945;48.816;11.506;2022-09-13T12:24:38;22.90;96.70
15690;DHT22;7945;48.816;11.506;2022-09-13T12:27:12;23.00;96.30
15690;DHT22;7945;48.816;11.506;2022-09-13T12:29:49;23.00;95.80
15690;DHT22;7945;48.816;11.506;2022-09-13T12:32:17;23.10;95.60
15690;DHT22;7945;48.816;11.506;2022-09-13T12:34:48;23.10;95.70
15690;DHT22;7945;48.816;11.506;2022-09-13T12:37:30;23.30;95.80
15690;DHT22;7945;48.816;11.506;2022-09-13T12:40:32;23.40;95.40
15690;DHT22;7945;48.816;11.506;2022-09-13T12:43:17;23.60;95.00
15690;DHT22;7945;48.816;11.506;2022-09-13T12:46:05;23.80;94.90
15690;DHT22;7945;48.816;11.506;2022-09-13T12:48:49;23.90;94.80
15690;DHT22;7945;48.816;11.506;2022-09-13T12:51:31;23.90;94.90
15690;DHT22;7945;48.816;11.506;2022-09-13T12:57:20;23.90;94.70
15690;DHT22;7945;48.816;11.506;2022-09-13T13:00:16;23.90;94.80
15690;DHT22;7945;48.816;11.506;2022-09-13T13:02:51;24.00;95.00
15690;DHT22;7945;48.816;11.506;2022-09-13T13:05:24;24.00;94.90
15690;DHT22;7945;48.816;11.506;2022-09-13T13:07:54;24.00;94.60
15690;DHT22;7945;48.816;11.506;2022-09-13T13:10:28;24.00;94.60
15690;DHT22;7945;48.816;11.506;2022-09-13T13:13:08;24.00;95.00
15690;DHT22;7945;48.816;11.506;2022-09-13T13:16:03;24.00;94.50
15690;DHT22;7945;48.816;11.506;2022-09-13T13:18:43;24.00;94.00
15690;DHT22;7945;48.816;11.506;2022-09-13T13:21:35;24.00;94.20
15690;DHT22;7945;48.816;11.506;2022-09-13T13:24:38;24.00;94.00
15690;DHT22;7945;48.816;11.506;2022-09-13T13:27:40;24.00;94.30
15690;DHT22;7945;48.816;11.506;2022-09-13T13:30:39;23.90;94.30
15690;DHT22;7945;48.816;11.506;2022-09-13T13:33:17;23.90;94.30
15690;DHT22;7945;48.816;11.506;2022-09-13T13:35:44;24.00;95.00
15690;DHT22;7945;48.816;11.506;2022-09-13T13:38:46;24.00;94.80
15690;DHT22;7945;48.816;11.506;2022-09-13T13:41:38;24.10;94.40
15690;DHT22;7945;48.816;11.506;2022-09-13T13:47:49;24.20;94.30
15690;DHT22;7945;48.816;11.506;2022-09-13T13:50:19;24.20;93.70
15690;DHT22;7945;48.816;11.506;2022-09-13T13:53:17;24.20;94.10
15690;DHT22;7945;48.816;11.506;2022-09-13T13:55:46;24.20;94.00
15690;DHT22;7945;48.816;11.506;2022-09-13T13:58:42;24.10;94.00
15690;DHT22;7945;48.816;11.506;2022-09-13T14:01:16;24.10;94.00
15690;DHT22;7945;48.816;11.506;2022-09-13T14:04:03;24.10;94.40
15690;DHT22;7945;48.816;11.506;2022-09-13T14:06:36;24.10;94.60
15690;DHT22;7945;48.816;11.506;2022-09-13T14:09:19;24.10;94.50
15690;DHT22;7945;48.816;11.506;2022-09-13T14:12:00;24.10;94.70
15690;DHT22;7945;48.816;11.506;2022-09-13T14:14:44;24.10;94.50
15690;DHT22;7945;48.816;11.506;2022-09-13T14:20:23;24.10;94.10
15690;DHT22;7945;48.816;11.506;2022-09-13T14:22:57;24.00;94.10
15690;DHT22;7945;48.816;11.506;2022-09-13T14:25:36;24.00;94.60
15690;DHT22;7945;48.816;11.506;2022-09-13T14:28:05;24.00;94.20
15690;DHT22;7945;48.816;11.506;2022-09-13T14:30:36;23.90;94.80
15690;DHT22;7945;48.816;11.506;2022-09-13T14:33:04;23.80;95.20
15690;DHT22;7945;48.816;11.506;2022-09-13T14:35:34;23.80;95.70
15690;DHT22;7945;48.816;11.506;2022-09-13T14:38:18;23.80;96.10
15690;DHT22;7945;48.816;11.506;2022-09-13T14:40:47;23.70;97.00
15690;DHT22;7945;48.816;11.506;2022-09-13T14:43:15;23.70;97.00
15690;DHT22;7945;48.816;11.506;2022-09-13T14:45:44;23.70;96.20
15690;DHT22;7945;48.816;11.506;2022-09-13T14:48:17;23.70;96.60
15690;DHT22;7945;48.816;11.506;2022-09-13T14:50:49;23.60;96.70
15690;DHT22;7945;48.816;11.506;2022-09-13T14:53:20;23.60;96.70
15690;DHT22;7945;48.816;11.506;2022-09-13T14:55:50;23.50;96.80
15690;DHT22;7945;48.816;11.506;2022-09-13T14:58:20;23.50;97.20
15690;DHT22;7945;48.816;11.506;2022-09-13T15:00:50;23.50;98.10
15690;DHT22;7945;48.816;11.506;2022-09-13T15:03:18;23.40;98.30
15690;DHT22;7945;48.816;11.506;2022-09-13T15:05:51;23.40;98.40
15690;DHT22;7945;48.816;11.506;2022-09-13T15:08:43;23.40;97.90
15690;DHT22;7945;48.816;11.506;2022-09-13T15:11:25;23.30;98.20
15690;DHT22;7945;48.816;11.506;2022-09-13T15:14:00;23.20;97.90
15690;DHT22;7945;48.816;11.506;2022-09-13T15:16:29;23.20;98.70
15690;DHT22;7945;48.816;11.506;2022-09-13T15:21:53;23.20;98.30
15690;DHT22;7945;48.816;11.506;2022-09-13T15:24:26;23.20;98.20
15690;DHT22;7945;48.816;11.506;2022-09-13T15:27:03;23.10;98.10
15690;DHT22;7945;48.816;11.506;2022-09-13T15:29:31;23.10;98.50
15690;DHT22;7945;48.816;11.506;2022-09-13T15:31:59;23.10;98.60
15690;DHT22;7945;48.816;11.506;2022-09-13T15:34:27;23.10;98.50
15690;DHT22;7945;48.816;11.506;2022-09-13T15:37:10;23.10;97.90
15690;DHT22;7945;48.816;11.506;2022-09-13T15:39:43;23.10;98.20
15690;DHT22;7945;48.816;11.506;2022-09-13T15:42:10;23.00;98.30
15690;DHT22;7945;48.816;11.506;2022-09-13T15:44:37;23.00;98.40
15690;DHT22;7945;48.816;11.506;2022-09-13T15:47:09;22.90;98.10
15690;DHT22;7945;48.816;11.506;2022-09-13T15:49:37;22.90;98.40
15690;DHT22;7945;48.816;11.506;2022-09-13T15:52:05;22.90;98.80
15690;DHT22;7945;48.816;11.506;2022-09-13T15:54:33;22.80;98.60
15690;DHT22;7945;48.816;11.506;2022-09-13T15:57:05;22.80;98.40
15690;DHT22;7945;48.816;11.506;2022-09-13T15:59:32;22.80;98.70
15690;DHT22;7945;48.816;11.506;2022-09-13T16:02:01;22.80;99.60
15690;DHT22;7945;48.816;11.506;2022-09-13T16:04:28;22.80;99.80
15690;DHT22;7945;48.816;11.506;2022-09-13T16:06:55;22.80;99.80
15690;DHT22;7945;48.816;11.506;2022-09-13T16:09:23;22.80;99.60
15690;DHT22;7945;48.816;11.506;2022-09-13T16:11:52;22.80;99.60
15690;DHT22;7945;48.816;11.506;2022-09-13T16:14:20;22.80;99.90
15690;DHT22;7945;48.816;11.506;2022-09-13T16:16:47;22.80;99.90
15690;DHT22;7945;48.816;11.506;2022-09-13T16:19:18;22.70;99.90
15690;DHT22;7945;48.816;11.506;2022-09-13T16:21:46;22.70;99.90
15690;DHT22;7945;48.816;11.506;2022-09-13T16:24:13;22.70;99.90
15690;DHT22;7945;48.816;11.506;2022-09-13T16:26:41;22.70;99.90
15690;DHT22;7945;48.816;11.506;2022-09-13T16:29:09;22.60;99.90
15690;DHT22;7945;48.816;11.506;2022-09-13T16:31:38;22.60;99.90
15690;DHT22;7945;48.816;11.506;2022-09-13T16:34:05;22.60;99.90
15690;DHT22;7945;48.816;11.506;2022-09-13T16:36:32;22.60;99.90